Terminal Aerodrome Forecast
Issued by NWS Charleston, WV

Current Version | Previous Version | Text Only | Print | Product List | Glossary Off
Versions: 1 2 3 4 5 6 7 8 9 10 11 12 13 14 15 16 17 18 19 20 21 22 23 24 25 26 27 28

000
FTUS41 KRLX 240900 AAB
TAFBKW
TAF AMD
KBKW 240909Z 2409/2506 VRB03KT 6SM BR SCT025
      TEMPO 2409/2412 5SM BR SCT001 BKN025
     FM241300 VRB03KT P6SM BKN250=

USA.gov is the U.S. government's official web portal to all federal, state and local government web resources and services.